createdAt,value
2022-10-30T00:00:06.864Z,0
2022-10-30T00:01:04.120Z,0
2022-10-30T00:02:05.043Z,0
2022-10-30T00:03:06.505Z,0
2022-10-30T00:04:04.220Z,0
2022-10-30T00:05:04.117Z,0
2022-10-30T00:06:05.334Z,0
2022-10-30T00:07:04.265Z,0
2022-10-30T00:08:05.563Z,0
2022-10-30T00:09:04.145Z,0
2022-10-30T00:10:04.137Z,0
2022-10-30T00:11:06.893Z,0
2022-10-30T00:12:04.124Z,0
2022-10-30T00:13:04.161Z,0
2022-10-30T00:14:04.147Z,0
2022-10-30T00:15:04.121Z,0
2022-10-30T00:16:04.161Z,0
2022-10-30T00:17:06.983Z,0
2022-10-30T00:18:05.354Z,0
2022-10-30T00:19:04.136Z,0
2022-10-30T00:20:04.151Z,0
2022-10-30T00:21:04.387Z,0
2022-10-30T00:23:05.357Z,0
2022-10-30T00:24:04.133Z,0
2022-10-30T00:25:04.152Z,0
2022-10-30T00:26:04.283Z,0
2022-10-30T00:27:04.162Z,0
2022-10-30T00:28:07.383Z,0
2022-10-30T00:29:04.389Z,0
2022-10-30T00:30:04.230Z,0
2022-10-30T00:31:04.149Z,0
2022-10-30T00:32:04.153Z,0
2022-10-30T00:33:08.277Z,0
2022-10-30T00:34:04.169Z,0
2022-10-30T00:35:04.179Z,0
2022-10-30T00:36:04.176Z,0
2022-10-30T00:37:04.330Z,0
2022-10-30T00:38:05.682Z,0
2022-10-30T00:39:07.328Z,0
2022-10-30T00:40:07.229Z,0
2022-10-30T00:41:04.173Z,0
2022-10-30T00:42:04.251Z,0
2022-10-30T00:43:04.162Z,0
2022-10-30T00:44:10.351Z,0
2022-10-30T00:45:04.201Z,0
2022-10-30T00:46:04.183Z,0
2022-10-30T00:47:04.187Z,0
2022-10-30T00:48:06.249Z,0
2022-10-30T00:49:04.228Z,0
2022-10-30T00:50:07.184Z,0
2022-10-30T00:51:04.190Z,0
2022-10-30T00:52:04.188Z,0
2022-10-30T00:53:05.667Z,0
2022-10-30T00:54:04.271Z,0
2022-10-30T00:55:07.322Z,0
2022-10-30T00:56:04.195Z,0
2022-10-30T00:57:04.195Z,0
2022-10-30T00:58:04.207Z,0
2022-10-30T00:59:04.247Z,0
2022-10-30T01:00:04.208Z,0
2022-10-30T01:01:04.581Z,0
2022-10-30T01:02:05.244Z,0
2022-10-30T01:03:06.002Z,0
2022-10-30T01:04:05.328Z,0
2022-10-30T01:05:04.631Z,0
2022-10-30T01:06:04.246Z,0
2022-10-30T01:07:04.216Z,0
2022-10-30T01:08:05.933Z,0
2022-10-30T01:09:09.444Z,0
2022-10-30T01:10:04.244Z,0
2022-10-30T01:11:04.357Z,0
2022-10-30T01:12:04.274Z,0
2022-10-30T01:13:04.248Z,0
2022-10-30T01:14:04.281Z,0
2022-10-30T01:15:04.296Z,0
2022-10-30T01:16:04.245Z,0
2022-10-30T01:17:04.241Z,0
2022-10-30T01:18:05.652Z,0
2022-10-30T01:19:04.269Z,0
2022-10-30T01:20:04.428Z,0
2022-10-30T01:21:04.252Z,0
2022-10-30T01:22:07.131Z,0
2022-10-30T01:23:05.856Z,0
2022-10-30T01:24:04.291Z,0
2022-10-30T01:25:04.323Z,0
2022-10-30T01:26:04.273Z,0
2022-10-30T01:27:04.407Z,0
2022-10-30T01:28:04.250Z,0
2022-10-30T01:29:04.304Z,0
2022-10-30T01:30:04.272Z,0
2022-10-30T01:31:04.281Z,0
2022-10-30T01:32:04.261Z,0
2022-10-30T01:33:08.605Z,0
2022-10-30T01:34:04.351Z,0
2022-10-30T01:35:04.288Z,0
2022-10-30T01:36:04.273Z,0
2022-10-30T01:37:04.391Z,0
2022-10-30T01:38:07.932Z,0
2022-10-30T01:39:04.300Z,0
2022-10-30T01:40:04.323Z,0
2022-10-30T01:41:04.271Z,0
2022-10-30T01:42:04.341Z,0
2022-10-30T01:43:04.420Z,0
2022-10-30T01:44:09.509Z,0
2022-10-30T01:45:04.283Z,0
2022-10-30T01:46:04.303Z,0
2022-10-30T01:47:04.295Z,0
2022-10-30T01:48:05.426Z,0
2022-10-30T01:49:05.370Z,0
2022-10-30T01:50:04.295Z,0
2022-10-30T01:51:04.324Z,0
2022-10-30T01:52:04.319Z,0
2022-10-30T01:53:05.449Z,0
2022-10-30T01:54:04.675Z,0
2022-10-30T01:55:07.326Z,0
2022-10-30T01:56:04.310Z,0
2022-10-30T01:57:04.312Z,0
2022-10-30T01:58:04.308Z,0
2022-10-30T01:59:04.444Z,0
2022-10-30T02:00:07.359Z,0
2022-10-30T02:01:04.761Z,0
2022-10-30T02:02:05.461Z,0
2022-10-30T02:03:05.674Z,0
2022-10-30T02:04:04.610Z,0
2022-10-30T02:05:07.071Z,0
2022-10-30T02:06:11.638Z,0
2022-10-30T02:07:04.335Z,0
2022-10-30T02:08:05.368Z,0
2022-10-30T02:09:04.353Z,0
2022-10-30T02:10:04.344Z,0
2022-10-30T02:11:07.101Z,0
2022-10-30T02:12:04.344Z,0
2022-10-30T02:13:04.357Z,0
2022-10-30T02:14:04.398Z,0
2022-10-30T02:15:04.463Z,0
2022-10-30T02:16:07.396Z,0
2022-10-30T02:17:04.367Z,0
2022-10-30T02:18:05.958Z,0
2022-10-30T02:19:04.366Z,0
2022-10-30T02:20:04.394Z,0
2022-10-30T02:21:07.426Z,0
2022-10-30T02:22:08.555Z,0
2022-10-30T02:23:10.443Z,0
2022-10-30T02:24:04.379Z,0
2022-10-30T02:25:06.401Z,0
2022-10-30T02:26:04.360Z,0
2022-10-30T02:27:08.273Z,0
2022-10-30T02:28:04.408Z,0
2022-10-30T02:29:04.392Z,0
2022-10-30T02:30:04.396Z,0
2022-10-30T02:31:07.532Z,0
2022-10-30T02:32:04.385Z,0
2022-10-30T02:33:08.523Z,0
2022-10-30T02:34:04.397Z,0
2022-10-30T02:35:04.363Z,0
2022-10-30T02:36:04.371Z,0
2022-10-30T02:37:04.396Z,0
2022-10-30T02:38:08.465Z,0
2022-10-30T02:39:04.413Z,0
2022-10-30T02:40:07.407Z,0
2022-10-30T02:41:04.372Z,0
2022-10-30T02:42:04.395Z,0
2022-10-30T02:43:04.368Z,0
2022-10-30T02:44:10.090Z,0
2022-10-30T02:45:04.393Z,0
2022-10-30T02:46:07.518Z,0
2022-10-30T02:47:04.432Z,0
2022-10-30T02:48:06.633Z,0
2022-10-30T02:49:07.234Z,0
2022-10-30T02:50:10.532Z,0
2022-10-30T02:51:04.408Z,0
2022-10-30T02:52:04.437Z,0
2022-10-30T02:53:06.007Z,0
2022-10-30T02:54:04.432Z,0
2022-10-30T02:55:07.505Z,0
2022-10-30T02:56:05.441Z,0
2022-10-30T02:57:04.403Z,0
2022-10-30T02:58:04.485Z,0
2022-10-30T02:59:04.432Z,0
2022-10-30T03:00:05.549Z,0
2022-10-30T03:01:04.802Z,0
2022-10-30T03:02:05.396Z,0
2022-10-30T03:03:04.476Z,0
2022-10-30T03:04:04.571Z,0
2022-10-30T03:05:04.421Z,0
2022-10-30T03:06:07.481Z,0
2022-10-30T03:07:04.431Z,0
2022-10-30T03:08:05.967Z,0
2022-10-30T03:09:04.447Z,0
2022-10-30T03:10:04.416Z,0
2022-10-30T03:11:07.459Z,0
2022-10-30T03:12:04.441Z,0
2022-10-30T03:13:04.445Z,0
2022-10-30T03:14:04.452Z,0
2022-10-30T03:15:04.441Z,0
2022-10-30T03:16:04.453Z,0
2022-10-30T03:17:07.495Z,0
2022-10-30T03:18:05.735Z,0
2022-10-30T03:19:04.531Z,0
2022-10-30T03:20:04.454Z,0
2022-10-30T03:21:04.442Z,0
2022-10-30T03:22:07.264Z,0
2022-10-30T03:23:04.452Z,0
2022-10-30T03:24:04.465Z,0
2022-10-30T03:25:07.309Z,0
2022-10-30T03:26:04.472Z,0
2022-10-30T03:27:04.464Z,0
2022-10-30T03:28:06.203Z,0
2022-10-30T03:29:04.487Z,0
2022-10-30T03:30:04.450Z,0
2022-10-30T03:31:04.479Z,0
2022-10-30T03:32:04.471Z,0
2022-10-30T03:33:05.724Z,0
2022-10-30T03:34:04.575Z,0
2022-10-30T03:35:04.582Z,0
2022-10-30T03:36:04.501Z,0
2022-10-30T03:37:04.467Z,0
2022-10-30T03:38:04.478Z,0
2022-10-30T03:39:04.523Z,0
2022-10-30T03:40:04.492Z,0
2022-10-30T03:41:04.513Z,0
2022-10-30T03:42:04.490Z,0
2022-10-30T03:43:05.827Z,0
2022-10-30T03:44:04.507Z,0
2022-10-30T03:45:04.482Z,0
2022-10-30T03:46:04.487Z,0
2022-10-30T03:47:04.706Z,0
2022-10-30T03:48:05.976Z,0
2022-10-30T03:49:07.348Z,0
2022-10-30T03:50:04.577Z,0
2022-10-30T03:51:04.545Z,0
2022-10-30T03:52:04.490Z,0
2022-10-30T03:53:04.692Z,0
2022-10-30T03:54:04.538Z,0
2022-10-30T03:55:07.441Z,0
2022-10-30T03:56:04.536Z,0
2022-10-30T03:57:05.231Z,0
2022-10-30T03:58:05.743Z,0
2022-10-30T03:59:05.648Z,0
2022-10-30T04:00:07.543Z,0
2022-10-30T04:01:05.012Z,0
2022-10-30T04:02:05.964Z,0
2022-10-30T04:03:05.789Z,0
2022-10-30T04:04:04.584Z,0
2022-10-30T04:05:07.362Z,0
2022-10-30T04:06:04.593Z,0
2022-10-30T04:07:04.561Z,0
2022-10-30T04:08:04.555Z,0
2022-10-30T04:09:04.576Z,0
2022-10-30T04:10:04.536Z,0
2022-10-30T04:11:07.901Z,0
2022-10-30T04:12:04.559Z,0
2022-10-30T04:13:05.468Z,0
2022-10-30T04:14:04.565Z,0
2022-10-30T04:15:04.560Z,0
2022-10-30T04:16:11.470Z,0
2022-10-30T04:17:04.945Z,0
2022-10-30T04:18:06.221Z,0
2022-10-30T04:19:04.567Z,0
2022-10-30T04:20:04.540Z,0
2022-10-30T04:21:07.391Z,0
2022-10-30T04:22:07.791Z,0
2022-10-30T04:23:04.564Z,0
2022-10-30T04:24:04.625Z,0
2022-10-30T04:25:04.553Z,0
2022-10-30T04:26:04.560Z,0
2022-10-30T04:27:07.373Z,0
2022-10-30T04:28:05.966Z,0
2022-10-30T04:29:04.582Z,0
2022-10-30T04:30:04.559Z,0
2022-10-30T04:31:04.562Z,0
2022-10-30T04:32:07.892Z,0
2022-10-30T04:33:08.693Z,0
2022-10-30T04:34:04.609Z,0
2022-10-30T04:35:04.570Z,0
2022-10-30T04:36:04.580Z,0
2022-10-30T04:37:04.705Z,0
2022-10-30T04:38:07.453Z,0
2022-10-30T04:39:04.659Z,0
2022-10-30T04:40:04.607Z,0
2022-10-30T04:41:04.605Z,0
2022-10-30T04:42:04.573Z,0
2022-10-30T04:43:06.962Z,0
2022-10-30T04:44:04.638Z,0
2022-10-30T04:45:11.202Z,0
2022-10-30T04:46:04.604Z,0
2022-10-30T04:47:05.662Z,0
2022-10-30T04:48:05.832Z,0
2022-10-30T04:49:07.410Z,0
2022-10-30T04:50:04.631Z,0
2022-10-30T04:51:04.623Z,0
2022-10-30T04:52:04.631Z,0
2022-10-30T04:53:04.663Z,0
2022-10-30T04:54:07.699Z,0
2022-10-30T04:55:04.620Z,0
2022-10-30T04:56:04.629Z,0
2022-10-30T04:57:04.653Z,0
2022-10-30T04:58:06.343Z,0
2022-10-30T04:59:04.637Z,0
2022-10-30T05:00:07.486Z,0
2022-10-30T05:01:11.496Z,0
2022-10-30T05:02:05.495Z,0
2022-10-30T05:03:04.714Z,0
2022-10-30T05:04:04.876Z,0
2022-10-30T05:05:07.380Z,0
2022-10-30T05:06:04.674Z,0
2022-10-30T05:07:04.640Z,0
2022-10-30T05:08:06.124Z,0
2022-10-30T05:09:04.714Z,0
2022-10-30T05:10:04.753Z,0
2022-10-30T05:11:07.842Z,0
2022-10-30T05:12:09.079Z,0
2022-10-30T05:13:04.759Z,0
2022-10-30T05:14:04.679Z,0
2022-10-30T05:15:04.677Z,0
2022-10-30T05:16:07.645Z,0
2022-10-30T05:17:04.637Z,0
2022-10-30T05:18:06.128Z,0
2022-10-30T05:19:04.689Z,0
2022-10-30T05:20:04.669Z,0
2022-10-30T05:21:04.702Z,0
2022-10-30T05:22:07.702Z,0
2022-10-30T05:23:04.649Z,0
2022-10-30T05:24:04.695Z,0
2022-10-30T05:25:04.864Z,0
2022-10-30T05:26:04.696Z,0
2022-10-30T05:27:05.726Z,0
2022-10-30T05:28:06.357Z,0
2022-10-30T05:29:04.676Z,0
2022-10-30T05:30:04.680Z,0
2022-10-30T05:31:04.763Z,0
2022-10-30T05:32:04.966Z,0
2022-10-30T05:33:07.108Z,0
2022-10-30T05:34:09.953Z,0
2022-10-30T05:35:05.064Z,0
2022-10-30T05:36:04.672Z,0
2022-10-30T05:37:04.677Z,0
2022-10-30T05:38:07.730Z,0
2022-10-30T05:39:04.692Z,0
2022-10-30T05:40:04.744Z,0
2022-10-30T05:41:04.770Z,0
2022-10-30T05:42:06.601Z,0
2022-10-30T05:43:06.206Z,0
2022-10-30T05:44:07.661Z,0
2022-10-30T05:45:10.451Z,0
2022-10-30T05:46:04.686Z,0
2022-10-30T05:47:04.854Z,0
2022-10-30T05:48:06.051Z,0
2022-10-30T05:49:07.712Z,0
2022-10-30T05:50:04.764Z,0
2022-10-30T05:51:04.740Z,0
2022-10-30T05:52:04.699Z,0
2022-10-30T05:53:09.585Z,0
2022-10-30T05:54:04.722Z,0
2022-10-30T05:55:09.608Z,0
2022-10-30T05:56:04.715Z,0
2022-10-30T05:57:04.816Z,0
2022-10-30T05:58:06.393Z,0
2022-10-30T05:59:04.726Z,0
2022-10-30T06:00:04.743Z,0
2022-10-30T06:01:04.740Z,0
2022-10-30T06:02:05.128Z,0
2022-10-30T06:03:07.045Z,0
2022-10-30T06:04:04.766Z,0
2022-10-30T06:05:04.782Z,0
2022-10-30T06:06:04.822Z,0
2022-10-30T06:07:04.770Z,0
2022-10-30T06:08:04.778Z,0
2022-10-30T06:09:04.796Z,0
2022-10-30T06:10:07.647Z,0
2022-10-30T06:11:04.748Z,0
2022-10-30T06:12:04.774Z,0
2022-10-30T06:13:06.582Z,0
2022-10-30T06:14:04.912Z,0
2022-10-30T06:15:05.052Z,0
2022-10-30T06:16:07.878Z,0
2022-10-30T06:17:04.952Z,0
2022-10-30T06:18:06.248Z,0
2022-10-30T06:19:04.791Z,0
2022-10-30T06:20:04.809Z,0
2022-10-30T06:21:04.806Z,0
2022-10-30T06:22:04.819Z,0
2022-10-30T06:23:04.842Z,0
2022-10-30T06:24:04.856Z,0
2022-10-30T06:25:04.654Z,0
2022-10-30T06:26:04.821Z,5
2022-10-30T06:27:05.952Z,5
2022-10-30T06:28:06.262Z,5
2022-10-30T06:29:04.975Z,5
2022-10-30T06:30:04.850Z,5
2022-10-30T06:31:04.931Z,5
2022-10-30T06:32:11.326Z,5
2022-10-30T06:33:06.368Z,5
2022-10-30T06:34:04.794Z,5
2022-10-30T06:35:04.796Z,5
2022-10-30T06:36:04.777Z,5
2022-10-30T06:37:05.235Z,5
2022-10-30T06:38:07.910Z,5
2022-10-30T06:39:04.941Z,5
2022-10-30T06:40:04.815Z,5
2022-10-30T06:41:04.789Z,5
2022-10-30T06:42:04.818Z,5
2022-10-30T06:43:08.852Z,5
2022-10-30T06:44:04.959Z,5
2022-10-30T06:45:04.875Z,5
2022-10-30T06:47:04.833Z,10
2022-10-30T06:48:06.593Z,10
2022-10-30T06:49:07.824Z,10
2022-10-30T06:50:04.721Z,10
2022-10-30T06:51:04.788Z,10
2022-10-30T06:52:04.795Z,10
2022-10-30T06:53:04.878Z,15
2022-10-30T06:54:07.762Z,15
2022-10-30T06:55:04.876Z,15
2022-10-30T06:56:08.060Z,15
2022-10-30T06:57:04.915Z,15
2022-10-30T06:58:06.404Z,20
2022-10-30T06:59:07.650Z,20
2022-10-30T07:00:07.806Z,20
2022-10-30T07:01:04.915Z,20
2022-10-30T07:02:15.817Z,20
2022-10-30T07:03:07.002Z,20
2022-10-30T07:04:04.828Z,20
2022-10-30T07:05:07.678Z,20
2022-10-30T07:06:04.848Z,20
2022-10-30T07:07:04.839Z,20
2022-10-30T07:08:04.964Z,20
2022-10-30T07:09:04.907Z,20
2022-10-30T07:10:05.952Z,20
2022-10-30T07:11:04.847Z,20
2022-10-30T07:12:12.572Z,15
2022-10-30T07:13:06.516Z,15
2022-10-30T07:14:05.048Z,15
2022-10-30T07:15:05.031Z,15
2022-10-30T07:16:07.960Z,15
2022-10-30T07:17:05.178Z,15
2022-10-30T07:18:09.183Z,15
2022-10-30T07:19:11.650Z,15
2022-10-30T07:20:05.007Z,15
2022-10-30T07:21:07.934Z,15
2022-10-30T07:22:05.060Z,20
2022-10-30T07:23:05.176Z,20
2022-10-30T07:24:05.273Z,20
2022-10-30T07:25:04.914Z,20
2022-10-30T07:26:11.654Z,20
2022-10-30T07:27:07.912Z,25
2022-10-30T07:28:06.617Z,25
2022-10-30T07:29:05.058Z,30
2022-10-30T07:30:05.022Z,30
2022-10-30T07:31:05.062Z,30
2022-10-30T07:32:12.445Z,20
2022-10-30T07:33:09.790Z,20
2022-10-30T07:34:05.059Z,20
2022-10-30T07:35:04.993Z,20
2022-10-30T07:36:07.598Z,20
2022-10-30T07:37:05.474Z,20
2022-10-30T07:38:10.094Z,15
2022-10-30T07:39:05.921Z,15
2022-10-30T07:40:08.604Z,15
2022-10-30T07:41:04.903Z,15
2022-10-30T07:42:05.245Z,15
2022-10-30T07:43:08.963Z,15
2022-10-30T07:44:04.898Z,15
2022-10-30T07:45:05.417Z,15
2022-10-30T07:46:05.061Z,20
2022-10-30T07:47:04.992Z,20
2022-10-30T07:48:06.735Z,20
2022-10-30T07:49:07.920Z,20
2022-10-30T07:50:05.239Z,20
2022-10-30T07:51:04.977Z,20
2022-10-30T07:52:05.139Z,20
2022-10-30T07:53:04.901Z,20
2022-10-30T07:54:07.788Z,25
2022-10-30T07:55:04.935Z,25
2022-10-30T07:56:04.925Z,25
2022-10-30T07:57:04.997Z,25
2022-10-30T07:58:06.468Z,30
2022-10-30T07:59:04.913Z,30
2022-10-30T08:00:11.641Z,30
2022-10-30T08:01:05.274Z,35
2022-10-30T08:02:06.109Z,40
2022-10-30T08:03:06.949Z,35
2022-10-30T08:04:05.038Z,35
2022-10-30T08:05:08.200Z,35
2022-10-30T08:06:05.558Z,40
2022-10-30T08:07:05.018Z,40
2022-10-30T08:08:08.647Z,40
2022-10-30T08:09:04.953Z,45
2022-10-30T08:10:04.972Z,45
2022-10-30T08:11:07.776Z,45
2022-10-30T08:12:04.969Z,40
2022-10-30T08:13:04.928Z,35
2022-10-30T08:14:05.092Z,40
2022-10-30T08:15:04.972Z,40
2022-10-30T08:16:07.805Z,40
2022-10-30T08:17:04.973Z,40
2022-10-30T08:18:06.361Z,45
2022-10-30T08:19:04.945Z,45
2022-10-30T08:20:05.059Z,45
2022-10-30T08:21:05.018Z,45
2022-10-30T08:22:09.038Z,45
2022-10-30T08:23:06.361Z,45
2022-10-30T08:24:05.135Z,50
2022-10-30T08:25:04.976Z,50
2022-10-30T08:26:05.038Z,60
2022-10-30T08:27:04.960Z,55
2022-10-30T08:28:04.977Z,60
2022-10-30T08:29:04.979Z,60
2022-10-30T08:30:04.997Z,65
2022-10-30T08:31:04.965Z,60
2022-10-30T08:32:05.039Z,60
2022-10-30T08:33:06.583Z,60
2022-10-30T08:34:05.012Z,60
2022-10-30T08:35:05.023Z,60
2022-10-30T08:36:05.105Z,55
2022-10-30T08:37:05.059Z,50
2022-10-30T08:38:06.695Z,55
2022-10-30T08:39:05.023Z,55
2022-10-30T08:40:04.995Z,60
2022-10-30T08:41:05.034Z,55
2022-10-30T08:42:05.183Z,60
2022-10-30T08:43:08.295Z,55
2022-10-30T08:44:04.976Z,60
2022-10-30T08:45:05.023Z,55
2022-10-30T08:46:05.045Z,65
2022-10-30T08:47:05.045Z,60
2022-10-30T08:48:06.726Z,55
2022-10-30T08:49:05.002Z,65
2022-10-30T08:50:05.057Z,60
2022-10-30T08:51:05.017Z,65
2022-10-30T08:52:05.092Z,60
2022-10-30T08:53:07.229Z,65
2022-10-30T08:54:06.121Z,65
2022-10-30T08:55:05.060Z,60
2022-10-30T08:56:05.024Z,65
2022-10-30T08:57:05.066Z,65
2022-10-30T08:58:05.128Z,65
2022-10-30T08:59:08.048Z,65
2022-10-30T09:00:05.080Z,65
2022-10-30T09:01:10.729Z,65
2022-10-30T09:02:05.828Z,70
2022-10-30T09:03:07.429Z,70
2022-10-30T09:04:06.172Z,70
2022-10-30T09:06:08.274Z,70
2022-10-30T09:07:08.843Z,70
2022-10-30T09:08:09.811Z,70
2022-10-30T09:09:05.097Z,70
2022-10-30T09:10:08.060Z,70
2022-10-30T09:11:05.053Z,70
2022-10-30T09:12:05.052Z,70
2022-10-30T09:13:05.076Z,70
2022-10-30T09:14:05.055Z,75
2022-10-30T09:15:05.119Z,70
2022-10-30T09:16:07.889Z,70
2022-10-30T09:17:05.073Z,70
2022-10-30T09:18:06.795Z,65
2022-10-30T09:19:05.506Z,65
2022-10-30T09:20:05.085Z,65
2022-10-30T09:21:10.084Z,65
2022-10-30T09:22:05.142Z,65
2022-10-30T09:23:06.969Z,65
2022-10-30T09:24:05.203Z,60
2022-10-30T09:25:05.118Z,50
2022-10-30T09:26:05.977Z,45
2022-10-30T09:28:05.133Z,40
2022-10-30T09:29:05.115Z,40
2022-10-30T09:30:05.084Z,40
2022-10-30T09:31:05.117Z,45
2022-10-30T09:32:08.119Z,45
2022-10-30T09:33:07.551Z,50
2022-10-30T09:34:05.090Z,60
2022-10-30T09:35:05.131Z,60
2022-10-30T09:36:05.216Z,65
2022-10-30T09:37:06.196Z,65
2022-10-30T09:38:09.429Z,70
2022-10-30T09:39:05.111Z,70
2022-10-30T09:40:05.203Z,65
2022-10-30T09:41:05.233Z,65
2022-10-30T09:42:08.138Z,65
2022-10-30T09:43:07.829Z,65
2022-10-30T09:44:16.952Z,50
2022-10-30T09:45:39.761Z,65
2022-10-30T09:46:05.134Z,65
2022-10-30T09:47:05.102Z,65
2022-10-30T09:48:08.981Z,65
2022-10-30T09:49:05.532Z,70
2022-10-30T09:50:05.125Z,65
2022-10-30T09:51:05.152Z,65
2022-10-30T09:52:05.140Z,70
2022-10-30T09:53:06.429Z,65
2022-10-30T09:54:08.323Z,65
2022-10-30T09:55:05.126Z,65
2022-10-30T09:56:05.277Z,60
2022-10-30T09:57:11.279Z,65
2022-10-30T09:58:05.264Z,60
2022-10-30T09:59:08.145Z,65
2022-10-30T10:00:05.130Z,65
2022-10-30T10:01:13.135Z,65
2022-10-30T10:02:05.976Z,70
2022-10-30T10:03:06.694Z,65
2022-10-30T10:04:05.150Z,65
2022-10-30T10:05:07.993Z,65
2022-10-30T10:06:05.160Z,65
2022-10-30T10:07:05.162Z,65
2022-10-30T10:08:06.812Z,65
2022-10-30T10:09:05.166Z,60
2022-10-30T10:10:08.320Z,65
2022-10-30T10:11:05.170Z,65
2022-10-30T10:12:05.457Z,65
2022-10-30T10:13:12.025Z,60
2022-10-30T10:14:05.141Z,65
2022-10-30T10:15:05.144Z,65
2022-10-30T10:16:08.229Z,65
2022-10-30T10:17:05.148Z,65
2022-10-30T10:18:05.161Z,60
2022-10-30T10:19:05.257Z,65
2022-10-30T10:20:04.706Z,65
2022-10-30T10:21:06.319Z,65
2022-10-30T10:22:05.205Z,60
2022-10-30T10:23:06.344Z,60
2022-10-30T10:24:05.186Z,60
2022-10-30T10:25:05.181Z,55
2022-10-30T10:26:05.311Z,60
2022-10-30T10:27:08.456Z,60
2022-10-30T10:28:05.394Z,55
2022-10-30T10:29:05.356Z,55
2022-10-30T10:30:05.262Z,55
2022-10-30T10:31:05.231Z,50
2022-10-30T10:32:08.248Z,50
2022-10-30T10:33:06.359Z,50
2022-10-30T10:34:07.080Z,55
2022-10-30T10:35:05.199Z,60
2022-10-30T10:36:05.219Z,60
2022-10-30T10:37:05.196Z,60
2022-10-30T10:38:09.420Z,60
2022-10-30T10:39:05.228Z,55
2022-10-30T10:40:05.244Z,55
2022-10-30T10:41:05.317Z,55
2022-10-30T10:42:05.259Z,55
2022-10-30T10:43:08.090Z,50
2022-10-30T10:44:05.223Z,50
2022-10-30T10:45:05.260Z,50
2022-10-30T10:46:07.993Z,50
2022-10-30T10:47:11.940Z,50
2022-10-30T10:48:10.152Z,45
2022-10-30T10:49:05.202Z,45
2022-10-30T10:50:05.225Z,45
2022-10-30T10:51:05.244Z,45
2022-10-30T10:52:07.974Z,45
2022-10-30T10:53:06.579Z,45
2022-10-30T10:54:05.472Z,50
2022-10-30T10:55:05.294Z,50
2022-10-30T10:56:05.266Z,55
2022-10-30T10:57:05.299Z,55
2022-10-30T10:58:05.236Z,45
2022-10-30T10:59:05.639Z,45
2022-10-30T11:00:05.270Z,45
2022-10-30T11:01:05.604Z,45
2022-10-30T11:02:06.045Z,45
2022-10-30T11:03:07.253Z,45
2022-10-30T11:04:05.237Z,45
2022-10-30T11:05:05.275Z,45
2022-10-30T11:06:05.264Z,45
2022-10-30T11:07:05.244Z,50
2022-10-30T11:08:06.415Z,50
2022-10-30T11:09:05.306Z,45
2022-10-30T11:10:08.338Z,50
2022-10-30T11:11:05.286Z,45
2022-10-30T11:12:05.279Z,45
2022-10-30T11:13:06.616Z,45
2022-10-30T11:14:05.342Z,45
2022-10-30T11:15:05.368Z,45
2022-10-30T11:16:05.367Z,45
2022-10-30T11:17:05.307Z,45
2022-10-30T11:19:05.293Z,45
2022-10-30T11:20:05.298Z,45
2022-10-30T11:21:06.955Z,45
2022-10-30T11:22:05.286Z,45
2022-10-30T11:23:06.512Z,45
2022-10-30T11:24:05.279Z,45
2022-10-30T11:25:05.375Z,40
2022-10-30T11:26:08.195Z,45
2022-10-30T11:27:05.287Z,40
2022-10-30T11:28:05.294Z,40
2022-10-30T11:29:05.285Z,35
2022-10-30T11:30:05.336Z,35
2022-10-30T11:31:05.394Z,35
2022-10-30T11:32:08.385Z,40
2022-10-30T11:33:06.793Z,35
2022-10-30T11:34:05.321Z,40
2022-10-30T11:35:05.309Z,35
2022-10-30T11:36:05.319Z,40
2022-10-30T11:37:08.141Z,40
2022-10-30T11:38:05.302Z,35
2022-10-30T11:39:05.308Z,40
2022-10-30T11:40:05.314Z,35
2022-10-30T11:41:05.315Z,35
2022-10-30T11:42:05.372Z,30
2022-10-30T11:43:09.321Z,35
2022-10-30T11:44:05.333Z,35
2022-10-30T11:45:05.375Z,35
2022-10-30T11:46:05.312Z,35
2022-10-30T11:47:05.476Z,30
2022-10-30T11:48:19.404Z,35
2022-10-30T11:49:05.343Z,35
2022-10-30T11:50:05.344Z,35
2022-10-30T11:51:05.738Z,35
2022-10-30T11:52:05.357Z,35
2022-10-30T11:53:08.089Z,35
2022-10-30T11:54:08.192Z,30
2022-10-30T11:55:05.354Z,25
2022-10-30T11:56:05.337Z,30
2022-10-30T11:57:05.517Z,30
2022-10-30T11:58:07.210Z,35
2022-10-30T11:59:08.449Z,35
2022-10-30T12:00:15.618Z,35
2022-10-30T12:01:05.376Z,35
2022-10-30T12:02:06.102Z,35
2022-10-30T12:03:06.947Z,35
2022-10-30T12:04:06.495Z,35
2022-10-30T12:05:05.368Z,35
2022-10-30T12:06:05.357Z,35
2022-10-30T12:07:05.385Z,35
2022-10-30T12:08:05.440Z,35
2022-10-30T12:09:05.392Z,35
2022-10-30T12:10:08.447Z,35
2022-10-30T12:11:05.382Z,35
2022-10-30T12:12:11.429Z,35
2022-10-30T12:13:06.578Z,35
2022-10-30T12:14:05.456Z,35
2022-10-30T12:15:08.503Z,35
2022-10-30T12:16:05.410Z,35
2022-10-30T12:17:05.395Z,35
2022-10-30T12:18:05.233Z,30
2022-10-30T12:19:05.468Z,30
2022-10-30T12:20:06.550Z,30
2022-10-30T12:21:08.340Z,25
2022-10-30T12:22:15.279Z,30
2022-10-30T12:23:06.609Z,25
2022-10-30T12:24:05.397Z,25
2022-10-30T12:25:05.519Z,25
2022-10-30T12:26:08.477Z,25
2022-10-30T12:27:05.431Z,25
2022-10-30T12:28:05.396Z,25
2022-10-30T12:29:05.404Z,25
2022-10-30T12:30:17.559Z,25
2022-10-30T12:31:05.396Z,25
2022-10-30T12:32:06.536Z,25
2022-10-30T12:33:06.752Z,25
2022-10-30T12:34:05.786Z,25
2022-10-30T12:35:05.485Z,25
2022-10-30T12:36:05.609Z,25
2022-10-30T12:37:08.466Z,25
2022-10-30T12:38:06.834Z,25
2022-10-30T12:39:05.437Z,25
2022-10-30T12:40:05.436Z,25
2022-10-30T12:41:05.423Z,25
2022-10-30T12:42:05.483Z,25
2022-10-30T12:43:08.354Z,25
2022-10-30T12:44:05.431Z,25
2022-10-30T12:45:05.421Z,25
2022-10-30T12:46:05.439Z,20
2022-10-30T12:47:05.450Z,25
2022-10-30T12:48:09.660Z,25
2022-10-30T12:49:05.439Z,25
2022-10-30T12:51:05.531Z,25
2022-10-30T12:52:05.533Z,25
2022-10-30T12:53:06.907Z,25
2022-10-30T12:54:08.599Z,25
2022-10-30T12:55:05.446Z,25
2022-10-30T12:56:05.481Z,25
2022-10-30T12:57:05.476Z,25
2022-10-30T12:58:08.512Z,25
2022-10-30T12:59:08.255Z,25
2022-10-30T13:00:08.322Z,25
2022-10-30T13:01:05.925Z,25
2022-10-30T13:02:06.376Z,30
2022-10-30T13:03:06.949Z,25
2022-10-30T13:04:05.457Z,25
2022-10-30T13:05:08.297Z,25
2022-10-30T13:06:05.476Z,25
2022-10-30T13:07:05.578Z,25
2022-10-30T13:08:06.894Z,25
2022-10-30T13:09:05.505Z,25
2022-10-30T13:10:08.269Z,25
2022-10-30T13:11:05.488Z,25
2022-10-30T13:12:05.851Z,25
2022-10-30T13:13:05.482Z,25
2022-10-30T13:14:05.733Z,25
2022-10-30T13:15:05.494Z,25
2022-10-30T13:16:05.493Z,25
2022-10-30T13:17:05.567Z,25
2022-10-30T13:18:06.761Z,25
2022-10-30T13:19:05.671Z,25
2022-10-30T13:20:05.493Z,25
2022-10-30T13:21:05.544Z,25
2022-10-30T13:22:05.525Z,25
2022-10-30T13:23:06.636Z,25
2022-10-30T13:24:05.581Z,25
2022-10-30T13:25:11.320Z,25
2022-10-30T13:26:08.661Z,25
2022-10-30T13:27:05.526Z,25
2022-10-30T13:28:12.833Z,25
2022-10-30T13:29:05.515Z,25
2022-10-30T13:30:05.527Z,25
2022-10-30T13:31:05.514Z,25
2022-10-30T13:32:05.543Z,25
2022-10-30T13:33:07.525Z,25
2022-10-30T13:34:05.517Z,25
2022-10-30T13:35:05.517Z,25
2022-10-30T13:36:05.686Z,25
2022-10-30T13:37:08.659Z,25
2022-10-30T13:38:06.993Z,25
2022-10-30T13:39:05.601Z,25
2022-10-30T13:40:05.688Z,25
2022-10-30T13:41:05.530Z,25
2022-10-30T13:42:05.556Z,25
2022-10-30T13:43:05.553Z,20
2022-10-30T13:44:05.543Z,25
2022-10-30T13:45:05.543Z,25
2022-10-30T13:46:05.692Z,25
2022-10-30T13:47:05.568Z,20
2022-10-30T13:48:09.245Z,25
2022-10-30T13:49:05.555Z,25
2022-10-30T13:50:05.543Z,20
2022-10-30T13:51:06.630Z,20
2022-10-30T13:52:05.613Z,20
2022-10-30T13:53:09.244Z,20
2022-10-30T13:54:05.575Z,25
2022-10-30T13:55:05.907Z,30
2022-10-30T13:56:05.628Z,30
2022-10-30T13:57:05.639Z,30
2022-10-30T13:58:05.589Z,30
2022-10-30T13:59:08.688Z,25
2022-10-30T14:00:05.579Z,25
2022-10-30T14:01:05.948Z,25
2022-10-30T14:02:11.383Z,25
2022-10-30T14:03:07.591Z,25
2022-10-30T14:04:08.419Z,30
2022-10-30T14:05:05.574Z,30
2022-10-30T14:06:05.593Z,25
2022-10-30T14:07:05.613Z,30
2022-10-30T14:08:11.042Z,25
2022-10-30T14:09:08.181Z,20
2022-10-30T14:10:08.689Z,20
2022-10-30T14:11:09.862Z,15
2022-10-30T14:12:08.404Z,15
2022-10-30T14:13:06.927Z,10
2022-10-30T14:14:05.769Z,10
2022-10-30T14:15:14.847Z,10
2022-10-30T14:16:05.622Z,10
2022-10-30T14:17:05.653Z,10
2022-10-30T14:18:06.634Z,10
2022-10-30T14:19:05.598Z,10
2022-10-30T14:20:16.922Z,10
2022-10-30T14:21:05.612Z,10
2022-10-30T14:22:05.665Z,10
2022-10-30T14:23:06.597Z,10
2022-10-30T14:24:05.646Z,15
2022-10-30T14:25:05.613Z,15
2022-10-30T14:26:14.740Z,15
2022-10-30T14:27:05.670Z,15
2022-10-30T14:28:07.160Z,15
2022-10-30T14:29:05.628Z,10
2022-10-30T14:30:06.857Z,10
2022-10-30T14:31:08.696Z,10
2022-10-30T14:32:11.608Z,10
2022-10-30T14:33:05.740Z,10
2022-10-30T14:34:05.975Z,10
2022-10-30T14:35:05.865Z,10
2022-10-30T14:36:06.095Z,10